ソチ の空港の天気 - METARとTAF

ソチ空港 ( URSS / AER ) - ロシア ソチ
飛行場実況気象(Metar)
観測時間11/17 20:30 MSK (11/17 17:30 UTC)
風向・風速北東 4m/s
視程10km以上
天気現象弱いしゅう雨
全天の8割程度の雲 雲底高度 610m
全天を覆う雲 雲底高度 1220m
気温9℃
湿度93%
気圧1027hPa
METARURSS 171730Z 04004MPS 9999 -SHRA BKN020 OVC040CB 09/08 Q1027 WS ALL RWY R02/290055 R06/290055 NOSIG RMK R06/36003G06MPS MT OBSC QFE769
過去の天気等 Google飛行場航空写真 Wunderground天気予報

過去48時間のMETAR

飛行場予報(TAF)
発表時間: 11/17 19:57 MSK (11/17 16:57 UTC)
予報対象時間: 17日21時 MSK ~ 18日21時 MSK
風向・風速北北東 7m/s
視程10km以上
全天の8割程度の積乱雲 雲底高度 910m
全天の8割程度の雲 雲底高度 3050m
17日21時 MSK ~ 18日12時 MSK に一時的に
視程3100m
天気現象弱いしゅう雨 もや
全天の8割程度の雲 雲底高度 340m
全天の8割程度の積乱雲 雲底高度 910m
18日12時 MSK ~ 18日21時 MSK に一時的に
風向・風速不定 1m/s
視程3100m
天気現象弱いしゅう雨 もや
全天の8割程度の積乱雲 雲底高度 610m
TAF URSS 171657Z 1718/1818 03007MPS 9999 BKN030CB BKN100
TEMPO 1718/1809 3100 -SHRA BR BKN011 BKN030CB
TEMPO 1809/1818 VRB01MPS 3100 -SHRA BR BKN020CB